17 Oct 2018 11:20 UTC 2018290+11:20 UTC

Overview Datums Bench Marks Data Query Site Visit Daily QC Messages Attributes

042: Nueces Delta 2

27° 53' 19" N   97° 34' 10" W
NUDE2
The Coastal Bend Bays & Estuaries Program Coastal Bend Bays and Estuaries Program

Station Information

Nueces Delta 2
Nueces Delta 2
more pictures
 
Station Name:Nueces Delta 2
DNR ID:042
Location:27° 53' 19" N, 97° 34' 10" W

Water Level Forecasts

Latest Observations

Series Metric English Marine Observed at
Water Temperature 14.4 °C 57.9 °F 57.9 °F Oct 17 06:12 CDT
00h07m ago
Salinity 2.100 psu 2.100 psu 2.100 psu Oct 17 06:12 CDT
00h07m ago

Maps

Nueces Delta 2
All Stations in Area
Entire Network
 

Recent Observations

Date/Time Water
Temp (°F)
Sal (psu)
Oct 17 06:00 CDT 58.1 2.100
Oct 17 05:00 CDT 58.5 1.900
Oct 17 04:00 CDT 58.3 2.000
Oct 17 03:00 CDT 58.3 2.200
Oct 17 02:00 CDT 58.6 2.000
Oct 17 01:00 CDT 58.8 2.000
Oct 17 00:00 CDT 59.0 1.900
Oct 16 23:00 CDT 59.0 2.100
Oct 16 22:00 CDT 58.8 2.300
Oct 16 21:00 CDT 59.0 2.300
Oct 16 20:00 CDT 59.2 2.300
Oct 16 19:00 CDT 59.5 2.000
Oct 16 18:00 CDT 59.5 2.200
Oct 16 17:00 CDT 59.7 2.200
Oct 16 16:00 CDT 59.5 2.200
Oct 16 15:00 CDT 59.5 2.200
Oct 16 14:00 CDT 59.4 2.300
Oct 16 13:00 CDT 59.4 2.100
Oct 16 12:00 CDT 59.0 2.100
Oct 16 11:00 CDT 58.8 2.200
Oct 16 10:00 CDT 58.5 2.500
Oct 16 09:00 CDT 59.0 2.400
Oct 16 08:00 CDT 59.0 2.700
Oct 16 07:00 CDT 59.7 2.500
Oct 16 06:00 CDT 60.3 2.800

Historical Data Availability